West Lafayette, IN (47906)

5:23 PM EDT on August 29, 2015 (GMT -0400)
Cumberland Elementary/West Lafayette | | Change Station
CLOSE
Current Station
Personal Weather Station
Location: West Lafayette, IN
Elevation: 712 ft
Nearby Weather Stations

Elev 712 ft 40.46 °N, 86.91 °W | Updated 9 minutes ago

Rain
Rain
78.1 °F
Feels Like 80 °F
N
3.1
Wind Variable Wind from SE

Today
High -- | Low -- °F
--% Chance of Precip.
Yesterday
High -- | Low -- °F
Precip. -- in
7:11 AM 8:24 PM
Full, 100% visible
Pressure 30.00 in
Visibility 8.0 miles
Clouds Scattered Clouds 3700 ft
Scattered Clouds 6000 ft
Mostly Cloudy 11000 ft
Heat Index 80 °F
Dew Point 66 °F
Humidity 67%
Rainfall 0.00 in
Snow Depth Not available.
UV 3 out of 12
Pollen 10.50 out of 12
Air Quality Not available.
Flu Activity Not available.
METAR KLAF 292054Z 19004KT 8SM -RA SCT037 SCT060 BKN110 24/21 A3001 RMK AO2 RAB19 SLP158 P0000 60000 T02440211 58015
Pressure 30.00 in
Visibility 8.0 miles
Clouds Scattered Clouds 3700 ft
Scattered Clouds 6000 ft
Mostly Cloudy 11000 ft
Heat Index 80 °F
Dew Point 66 °F
Humidity 67%
Rainfall 0.00 in
Snow Depth Not available.
UV 3 out of 12
Pollen 10.50 out of 12
Air Quality Not available.
Flu Activity Not available.
METAR KLAF 292054Z 19004KT 8SM -RA SCT037 SCT060 BKN110 24/21 A3001 RMK AO2 RAB19 SLP158 P0000 60000 T02440211 58015

10-Day Weather Forecast

×

Almanac

Astronomy

Aug. 29, 2015 Rise Set
Actual Time
Civil Twilight
Nautical Twilight
Astronomical Twilight
Moon
Length of Visible Light
Length of Day
Tomorrow will be .
, % of the Moon is Illuminated

Today's Extremes

State Highs State Lows

Community

WunderPhotos

Upload Photos

1,850,805 photos uploaded!

WunderBlogs® & News

Nearby

Air Quality

  Air Quality AQ Index Pollutant
Not available.

Snow Depth

Station Depth Elevation

Earthquake Activity

City Distance Mag. Time & Date
Minimum magnitude displayed is 2.5.

Coastal Water Temperatures

Place Temperature

Stations

Nearby Weather Stations

Station Location Temp. Windchill Dew Point Humidity Wind Precip. Elev Updated Type